• Join FlightAware (Why Join?)
  • Login
  • US Flag 
10:28AM EDT


 

Airport Tracker/Info


-or-


 

Live Flight TrackerFlight Track Log ✈ UPS1321 ✈ 14-Jul-2014 ✈ KJAX - KSDF

Flight Track Log - Related Links

Times and Time Zones

All times are in EDT time to prevent confusion due to time zone crossing. See the UPS1321 flight status page for this flight to view local times or setup timezone preferences in your user account.

Time Position Orientation Groundspeed Altitude Reporting Facility
EDT Latitude Longitude Course Direction KTS MPH feet Rate Location/Type
10:09PM 30.5069 -81.6725 334° Northwest 179 206 800  Level Jacksonville Center
10:10PM 30.5153 -81.6458 60° Northeast 190 219 2,200 2,400 Climbing Jacksonville Center
10:11PM 30.5422 -81.6383 13° North 200 230 3,800 2,220 Climbing Jacksonville Center
10:11PM 30.5675 -81.6525 334° Northwest 247 284 4,500 2,700 Climbing Jacksonville Center
10:12PM 30.6031 -81.6833 323° Northwest 268 308 6,500 3,360 Climbing Jacksonville Center
10:13PM 30.6642 -81.7358 324° Northwest 268 308 10,400 2,880 Climbing Jacksonville Center
10:14PM 30.7607 -81.8411 335° Northwest  Level FlightAware Approximate
10:14PM 30.7419 -81.7975 326° Northwest 295 339 12,300  Level Jacksonville Center
10:15PM 30.8555 -81.8938 334° Northwest  Level FlightAware Approximate
10:15PM 30.8303 -81.8692 325° Northwest 346 398 15,400  Level Jacksonville Center
10:16PM 30.9247 -81.9408 327° Northwest 383 441 18,200 2,640 Climbing Jacksonville Center
10:17PM 31.0297 -81.9981 335° Northwest 401 461 20,700 2,220 Climbing Jacksonville Center
10:18PM 31.1447 -82.0503 339° North 420 483 22,700 2,100 Climbing Jacksonville Center
10:19PM 31.2622 -82.1075 337° Northwest 443 510 25,000 2,160 Climbing Jacksonville Center
10:20PM 31.3836 -82.1650 338° Northwest 454 522 27,100 2,160 Climbing Jacksonville Center
10:21PM 31.5050 -82.2250 337° Northwest 460 529 29,400 1,980 Climbing Jacksonville Center
10:22PM 31.7242 -82.3272 338° Northwest 474 545 32,800 1,680 Climbing Atlanta Center
10:23PM 31.8422 -82.3961 334° Northwest 469 540 34,200 1,080 Climbing Atlanta Center
10:24PM 31.9558 -82.4650 333° Northwest 462 532 35,000 360 Climbing Atlanta Center
10:25PM 32.0714 -82.5339 333° Northwest 467 537 35,000  Level Atlanta Center
10:26PM 32.1786 -82.5983 333° Northwest 472 543 35,000  Level Atlanta Center
10:27PM 32.3194 -82.6822 333° Northwest 478 550 35,000 480 Level Atlanta Center
10:28PM 32.4350 -82.7542 332° Northwest 473 544 36,000 480 Climbing Atlanta Center
10:29PM 32.5506 -82.8214 334° Northwest 473 544 36,000  Level Atlanta Center
10:30PM 32.6781 -82.8617 345° North 463 533 36,000  Level Atlanta Center
10:31PM 32.8078 -82.8872 351° North 462 532 36,000  Level Atlanta Center
10:32PM 32.9375 -82.9128 351° North 468 539 36,000  Level Atlanta Center
10:33PM 33.0419 -82.9361 349° North 474 545 36,000  Level Atlanta Center
10:34PM 33.1883 -82.9664 350° North 474 545 36,000  Level Atlanta Center
10:35PM 33.3161 -82.9947 350° North 469 540 36,000  Level Atlanta Center
10:36PM 33.4456 -83.0206 351° North 463 533 36,000  Level Atlanta Center
10:37PM 33.5711 -83.0489 349° North 463 533 36,000  Level Atlanta Center
10:38PM 33.6986 -83.0775 349° North 463 533 36,000  Level Atlanta Center
10:39PM 33.8283 -83.1061 350° North 463 533 36,000  Level Atlanta Center
10:40PM 33.9578 -83.1322 351° North 471 542 36,000  Level Atlanta Center
10:41PM 34.0894 -83.1633 349° North 471 542 36,000  Level Atlanta Center
10:42PM 34.2233 -83.1922 350° North 471 542 36,000  Level Atlanta Center
10:43PM 34.3508 -83.2211 349° North 471 542 36,000  Level Atlanta Center
10:44PM 34.4950 -83.2500 351° North 471 542 36,000  Level Atlanta Center
10:45PM 34.6289 -83.2689 353° North 471 542 36,000  Level Atlanta Center
10:46PM 34.7542 -83.2981 349° North 465 535 36,000  Level Atlanta Center
10:47PM 34.8775 -83.3172 353° North 471 542 36,000  Level Atlanta Center
10:48PM 35.0069 -83.3314 355° North 477 549 36,000 -120 Level Atlanta Center
10:49PM 35.1406 -83.3506 353° North 477 549 35,800 -540 Descending Atlanta Center
10:50PM 35.2867 -83.3722 353° North 482 555 35,000 -420 Descending Atlanta Center
10:51PM 35.4203 -83.3889 354° North 482 555 35,000  Level Atlanta Center
10:52PM 35.5519 -83.4108 352° North 482 555 35,000  Level Atlanta Center
10:53PM 35.6814 -83.4250 355° North 482 555 35,000  Level Atlanta Center
10:54PM 35.8086 -83.4447 353° North 475 547 35,000  Level Atlanta Center
10:55PM 35.9400 -83.4617 354° North 470 541 35,000 -300 Level Atlanta Center
10:56PM 36.0489 -83.5303 333° Northwest 446 513 34,500 -840 Descending Atlanta Center
10:58PM 36.1717 -83.6358 325° Northwest 448 516 33,200 -1,080 Descending Indianapolis Center
10:59PM 36.2756 -83.7256 325° Northwest 453 521 32,200 -1,080 Descending Indianapolis Center
11:00PM 36.3742 -83.8258 321° Northwest 463 533 31,100 -360 Descending Indianapolis Center
11:05PM 36.9019 -84.4878 316° Northwest 458 527 30,000 -180 Descending FlightAware ADS-B (KBRY)
11:06PM 36.9959 -84.5997 321° Northwest 465 535 29,900 -1,200 Descending FlightAware ADS-B (KBRY)
11:07PM 37.0882 -84.7012 319° Northwest 449 517 27,700 -2,820 Descending FlightAware ADS-B (KBRY)
11:08PM 37.1802 -84.7979 321° Northwest 424 488 24,400 -3,240 Descending FlightAware ADS-B (KBRY)
11:09PM 37.2708 -84.8945 319° Northwest 396 456 21,300 -3,120 Descending FlightAware ADS-B (KBRY)
11:10PM 37.3508 -84.9815 318° Northwest 373 429 18,200 -3,120 Descending FlightAware ADS-B (KBRY)
11:11PM 37.4339 -85.0435 358° North 375 432 15,200 -2,520 Descending FlightAware ADS-B (KBRY)
11:12PM 37.5391 -85.0049 20° North 378 435 13,200 -1,680 Descending FlightAware ADS-B (KBRY)
11:13PM 37.5969 -84.9782 14° North 367 422 12,100 -1,080 Descending FlightAware ADS-B (KBRY)
11:14PM 37.7098 -85.0283 312° West 300 345 11,100 -1,020 Descending FlightAware ADS-B (KBRY)
11:15PM 37.7603 -85.1077 288° West 292 336 10,000 -1,020 Descending FlightAware ADS-B (KBRY)
11:16PM 37.7693 -85.2024 275° West 268 308 9,100 -1,260 Descending FlightAware ADS-B (KBRY)
11:17PM 37.7764 -85.2932 274° West 264 304 7,500 -1,500 Descending FlightAware ADS-B (KBRY)
11:18PM 37.7720 -85.3894 265° West 264 304 6,100 -1,200 Descending FlightAware ADS-B (KBRY)
11:19PM 37.7892 -85.4779 297° West 261 300 5,100 -780 Descending FlightAware ADS-B (KBRY)
11:20PM 37.8208 -85.5569 297° West 254 292 4,600 -960 Descending FlightAware ADS-B (KBRY)
11:21PM 37.8616 -85.6288 317° Northwest 253 291 3,200 -1,080 Descending FlightAware ADS-B (KBRY)
11:22PM 37.8950 -85.6529 345° North 255 293 3,000 -240 Descending FlightAware ADS-B (KEKX)
11:22PM 37.9258 -85.6631 346° North 255 293 3,000  Level FlightAware ADS-B (KBRY)
11:23PM 37.9884 -85.6833 345° North 213 245 3,000 -180 Level FlightAware ADS-B (KBRY)
11:24PM 38.0377 -85.6998 346° North 159 183 2,700 -480 Descending FlightAware ADS-B (KBRY)
11:25PM 38.0769 -85.7125 346° North 136 157 2,100 -720 Descending FlightAware ADS-B (KBRY)
11:26PM 38.1072 -85.7226 346° North 138 159 1,400 -780 Descending FlightAware ADS-B (KBRY)
11:27PM 38.1500 -85.7333 346° North 135 155 800 -660 Descending Louisville TRACON
11:29PM 38.1741 -85.7365 211° Southwest  Level Estimated
11:36PM 38.1741 -85.7365 208° Southwest  Level Estimated